sensor_id;sensor_type;location;lat;lon;timestamp;P1;durP1;ratioP1;P2;durP2;ratioP2
9597;SDS011;4837;50.890;4.724;2023-12-20T00:01:32;11.17;;;2.40;;
9597;SDS011;4837;50.890;4.724;2023-12-20T00:03:58;8.60;;;2.43;;
9597;SDS011;4837;50.890;4.724;2023-12-20T00:06:24;10.40;;;2.83;;
9597;SDS011;4837;50.890;4.724;2023-12-20T00:08:49;8.20;;;2.50;;
9597;SDS011;4837;50.890;4.724;2023-12-20T00:11:15;10.70;;;2.77;;
9597;SDS011;4837;50.890;4.724;2023-12-20T00:13:41;8.68;;;2.65;;
9597;SDS011;4837;50.890;4.724;2023-12-20T00:16:07;10.00;;;2.40;;
9597;SDS011;4837;50.890;4.724;2023-12-20T00:18:33;8.67;;;2.60;;
9597;SDS011;4837;50.890;4.724;2023-12-20T00:20:58;8.87;;;2.67;;
9597;SDS011;4837;50.890;4.724;2023-12-20T00:23:24;7.77;;;2.30;;
9597;SDS011;4837;50.890;4.724;2023-12-20T00:25:50;6.97;;;2.63;;
9597;SDS011;4837;50.890;4.724;2023-12-20T00:28:16;11.60;;;2.93;;
9597;SDS011;4837;50.890;4.724;2023-12-20T00:30:41;8.60;;;2.30;;
9597;SDS011;4837;50.890;4.724;2023-12-20T00:33:07;6.80;;;2.20;;
9597;SDS011;4837;50.890;4.724;2023-12-20T00:35:33;5.00;;;2.10;;
9597;SDS011;4837;50.890;4.724;2023-12-20T00:37:59;10.83;;;2.77;;
9597;SDS011;4837;50.890;4.724;2023-12-20T00:40:25;8.37;;;2.50;;
9597;SDS011;4837;50.890;4.724;2023-12-20T00:42:50;3.53;;;1.77;;
9597;SDS011;4837;50.890;4.724;2023-12-20T00:45:16;9.37;;;2.60;;
9597;SDS011;4837;50.890;4.724;2023-12-20T00:47:42;10.10;;;2.00;;
9597;SDS011;4837;50.890;4.724;2023-12-20T00:50:08;10.50;;;2.20;;
9597;SDS011;4837;50.890;4.724;2023-12-20T00:52:34;9.13;;;2.57;;
9597;SDS011;4837;50.890;4.724;2023-12-20T00:55:00;5.40;;;2.23;;
9597;SDS011;4837;50.890;4.724;2023-12-20T00:57:26;14.00;;;2.50;;
9597;SDS011;4837;50.890;4.724;2023-12-20T00:59:52;9.07;;;2.23;;
9597;SDS011;4837;50.890;4.724;2023-12-20T01:02:17;10.07;;;2.37;;
9597;SDS011;4837;50.890;4.724;2023-12-20T01:04:44;5.53;;;2.10;;
9597;SDS011;4837;50.890;4.724;2023-12-20T01:07:10;7.47;;;2.10;;
9597;SDS011;4837;50.890;4.724;2023-12-20T01:09:36;9.60;;;2.50;;
9597;SDS011;4837;50.890;4.724;2023-12-20T01:12:01;7.40;;;1.83;;
9597;SDS011;4837;50.890;4.724;2023-12-20T01:14:27;8.57;;;2.40;;
9597;SDS011;4837;50.890;4.724;2023-12-20T01:16:53;14.10;;;2.20;;
9597;SDS011;4837;50.890;4.724;2023-12-20T01:19:18;9.53;;;2.20;;
9597;SDS011;4837;50.890;4.724;2023-12-20T01:21:44;15.37;;;2.57;;
9597;SDS011;4837;50.890;4.724;2023-12-20T01:24:10;5.90;;;2.20;;
9597;SDS011;4837;50.890;4.724;2023-12-20T01:26:36;13.57;;;2.73;;
9597;SDS011;4837;50.890;4.724;2023-12-20T01:29:02;10.83;;;2.33;;
9597;SDS011;4837;50.890;4.724;2023-12-20T01:31:28;5.13;;;2.10;;
9597;SDS011;4837;50.890;4.724;2023-12-20T01:33:53;11.33;;;2.77;;
9597;SDS011;4837;50.890;4.724;2023-12-20T01:36:19;10.17;;;2.63;;
9597;SDS011;4837;50.890;4.724;2023-12-20T01:38:45;8.20;;;2.40;;
9597;SDS011;4837;50.890;4.724;2023-12-20T01:41:11;5.97;;;2.63;;
9597;SDS011;4837;50.890;4.724;2023-12-20T01:43:37;11.37;;;2.27;;
9597;SDS011;4837;50.890;4.724;2023-12-20T01:46:02;9.10;;;2.37;;
9597;SDS011;4837;50.890;4.724;2023-12-20T01:48:29;8.33;;;2.80;;
9597;SDS011;4837;50.890;4.724;2023-12-20T01:50:57;10.17;;;2.50;;
9597;SDS011;4837;50.890;4.724;2023-12-20T01:53:24;9.30;;;2.67;;
9597;SDS011;4837;50.890;4.724;2023-12-20T01:55:52;10.43;;;2.83;;
9597;SDS011;4837;50.890;4.724;2023-12-20T01:58:19;7.50;;;2.70;;
9597;SDS011;4837;50.890;4.724;2023-12-20T02:00:45;12.57;;;3.13;;
9597;SDS011;4837;50.890;4.724;2023-12-20T02:03:11;9.77;;;2.70;;
9597;SDS011;4837;50.890;4.724;2023-12-20T02:05:37;13.30;;;2.73;;
9597;SDS011;4837;50.890;4.724;2023-12-20T02:08:04;9.87;;;3.00;;
9597;SDS011;4837;50.890;4.724;2023-12-20T02:10:30;7.43;;;2.60;;
9597;SDS011;4837;50.890;4.724;2023-12-20T02:12:56;8.07;;;2.60;;
9597;SDS011;4837;50.890;4.724;2023-12-20T02:15:23;6.87;;;2.60;;
9597;SDS011;4837;50.890;4.724;2023-12-20T02:17:49;10.23;;;2.77;;
9597;SDS011;4837;50.890;4.724;2023-12-20T02:20:15;11.17;;;3.30;;
9597;SDS011;4837;50.890;4.724;2023-12-20T02:22:41;11.27;;;3.37;;
9597;SDS011;4837;50.890;4.724;2023-12-20T02:25:07;10.53;;;2.80;;
9597;SDS011;4837;50.890;4.724;2023-12-20T02:27:33;11.77;;;2.93;;
9597;SDS011;4837;50.890;4.724;2023-12-20T02:30:00;13.57;;;3.10;;
9597;SDS011;4837;50.890;4.724;2023-12-20T02:32:25;15.53;;;2.80;;
9597;SDS011;4837;50.890;4.724;2023-12-20T02:34:51;13.20;;;3.23;;
9597;SDS011;4837;50.890;4.724;2023-12-20T02:37:17;12.83;;;3.07;;
9597;SDS011;4837;50.890;4.724;2023-12-20T02:39:43;12.90;;;3.10;;
9597;SDS011;4837;50.890;4.724;2023-12-20T02:42:09;12.57;;;2.93;;
9597;SDS011;4837;50.890;4.724;2023-12-20T02:44:34;13.33;;;2.83;;
9597;SDS011;4837;50.890;4.724;2023-12-20T02:47:01;15.97;;;3.30;;
9597;SDS011;4837;50.890;4.724;2023-12-20T02:49:28;11.17;;;2.53;;
9597;SDS011;4837;50.890;4.724;2023-12-20T02:51:53;10.80;;;2.90;;
9597;SDS011;4837;50.890;4.724;2023-12-20T02:54:19;11.87;;;3.27;;
9597;SDS011;4837;50.890;4.724;2023-12-20T02:56:45;9.10;;;2.90;;
9597;SDS011;4837;50.890;4.724;2023-12-20T02:59:11;13.00;;;2.93;;
9597;SDS011;4837;50.890;4.724;2023-12-20T03:01:43;8.97;;;3.03;;
9597;SDS011;4837;50.890;4.724;2023-12-20T03:04:10;12.00;;;3.10;;
9597;SDS011;4837;50.890;4.724;2023-12-20T03:06:36;14.23;;;3.10;;
9597;SDS011;4837;50.890;4.724;2023-12-20T03:09:02;10.80;;;2.80;;
9597;SDS011;4837;50.890;4.724;2023-12-20T03:11:28;17.50;;;3.63;;
9597;SDS011;4837;50.890;4.724;2023-12-20T03:13:54;7.30;;;2.90;;
9597;SDS011;4837;50.890;4.724;2023-12-20T03:16:20;11.57;;;3.40;;
9597;SDS011;4837;50.890;4.724;2023-12-20T03:18:46;12.07;;;3.07;;
9597;SDS011;4837;50.890;4.724;2023-12-20T03:21:11;11.47;;;2.97;;
9597;SDS011;4837;50.890;4.724;2023-12-20T03:23:37;10.97;;;3.77;;
9597;SDS011;4837;50.890;4.724;2023-12-20T03:26:03;12.97;;;3.53;;
9597;SDS011;4837;50.890;4.724;2023-12-20T03:28:32;16.97;;;3.47;;
9597;SDS011;4837;50.890;4.724;2023-12-20T03:30:58;13.30;;;3.73;;
9597;SDS011;4837;50.890;4.724;2023-12-20T03:33:24;10.77;;;3.07;;
9597;SDS011;4837;50.890;4.724;2023-12-20T03:35:49;11.03;;;3.13;;
9597;SDS011;4837;50.890;4.724;2023-12-20T03:38:15;9.20;;;3.40;;
9597;SDS011;4837;50.890;4.724;2023-12-20T03:40:41;8.80;;;3.23;;
9597;SDS011;4837;50.890;4.724;2023-12-20T03:43:07;10.00;;;3.23;;
9597;SDS011;4837;50.890;4.724;2023-12-20T03:45:33;14.33;;;3.57;;
9597;SDS011;4837;50.890;4.724;2023-12-20T03:47:59;16.63;;;3.80;;
9597;SDS011;4837;50.890;4.724;2023-12-20T03:50:25;13.10;;;3.50;;
9597;SDS011;4837;50.890;4.724;2023-12-20T03:52:52;15.13;;;4.17;;
9597;SDS011;4837;50.890;4.724;2023-12-20T03:55:17;9.03;;;3.60;;
9597;SDS011;4837;50.890;4.724;2023-12-20T03:57:43;10.90;;;3.70;;
9597;SDS011;4837;50.890;4.724;2023-12-20T04:00:09;10.10;;;4.17;;
9597;SDS011;4837;50.890;4.724;2023-12-20T04:02:36;11.87;;;3.70;;
9597;SDS011;4837;50.890;4.724;2023-12-20T04:05:06;11.93;;;4.33;;
9597;SDS011;4837;50.890;4.724;2023-12-20T04:07:33;15.50;;;4.10;;
9597;SDS011;4837;50.890;4.724;2023-12-20T04:10:00;11.10;;;4.03;;
9597;SDS011;4837;50.890;4.724;2023-12-20T04:12:27;12.27;;;4.13;;
9597;SDS011;4837;50.890;4.724;2023-12-20T04:14:53;11.80;;;3.93;;
9597;SDS011;4837;50.890;4.724;2023-12-20T04:17:19;10.97;;;3.90;;
9597;SDS011;4837;50.890;4.724;2023-12-20T04:19:45;13.43;;;4.00;;
9597;SDS011;4837;50.890;4.724;2023-12-20T04:22:11;15.23;;;4.00;;
9597;SDS011;4837;50.890;4.724;2023-12-20T04:24:37;16.43;;;4.40;;
9597;SDS011;4837;50.890;4.724;2023-12-20T04:27:02;13.57;;;3.73;;
9597;SDS011;4837;50.890;4.724;2023-12-20T04:29:28;14.23;;;5.03;;
9597;SDS011;4837;50.890;4.724;2023-12-20T04:31:54;13.43;;;4.27;;
9597;SDS011;4837;50.890;4.724;2023-12-20T04:34:20;18.27;;;4.83;;
9597;SDS011;4837;50.890;4.724;2023-12-20T04:36:47;10.23;;;3.70;;
9597;SDS011;4837;50.890;4.724;2023-12-20T04:39:13;14.50;;;4.73;;
9597;SDS011;4837;50.890;4.724;2023-12-20T04:41:40;11.90;;;4.80;;
9597;SDS011;4837;50.890;4.724;2023-12-20T04:44:06;9.30;;;3.60;;
9597;SDS011;4837;50.890;4.724;2023-12-20T04:46:32;13.33;;;4.83;;
9597;SDS011;4837;50.890;4.724;2023-12-20T04:48:57;14.63;;;4.63;;
9597;SDS011;4837;50.890;4.724;2023-12-20T04:51:23;13.47;;;4.37;;
9597;SDS011;4837;50.890;4.724;2023-12-20T04:53:49;11.67;;;4.13;;
9597;SDS011;4837;50.890;4.724;2023-12-20T04:56:15;18.60;;;4.23;;
9597;SDS011;4837;50.890;4.724;2023-12-20T04:58:42;11.83;;;4.23;;
9597;SDS011;4837;50.890;4.724;2023-12-20T05:01:08;13.70;;;4.60;;
9597;SDS011;4837;50.890;4.724;2023-12-20T05:03:34;13.80;;;4.10;;
9597;SDS011;4837;50.890;4.724;2023-12-20T05:06:00;14.23;;;4.87;;
9597;SDS011;4837;50.890;4.724;2023-12-20T05:08:26;11.43;;;3.77;;
9597;SDS011;4837;50.890;4.724;2023-12-20T05:10:53;17.67;;;4.37;;
9597;SDS011;4837;50.890;4.724;2023-12-20T05:13:19;18.00;;;3.97;;
9597;SDS011;4837;50.890;4.724;2023-12-20T05:15:45;14.87;;;3.80;;
9597;SDS011;4837;50.890;4.724;2023-12-20T05:18:11;15.70;;;3.80;;
9597;SDS011;4837;50.890;4.724;2023-12-20T05:20:38;13.60;;;3.97;;
9597;SDS011;4837;50.890;4.724;2023-12-20T05:23:04;12.83;;;3.73;;
9597;SDS011;4837;50.890;4.724;2023-12-20T05:25:30;13.63;;;3.80;;
9597;SDS011;4837;50.890;4.724;2023-12-20T05:27:56;11.23;;;4.00;;
9597;SDS011;4837;50.890;4.724;2023-12-20T05:30:22;16.60;;;4.13;;
9597;SDS011;4837;50.890;4.724;2023-12-20T05:32:47;11.23;;;3.60;;
9597;SDS011;4837;50.890;4.724;2023-12-20T05:35:13;10.50;;;3.87;;
9597;SDS011;4837;50.890;4.724;2023-12-20T05:37:40;15.93;;;3.80;;
9597;SDS011;4837;50.890;4.724;2023-12-20T05:40:06;12.10;;;3.73;;
9597;SDS011;4837;50.890;4.724;2023-12-20T05:42:35;14.30;;;3.90;;
9597;SDS011;4837;50.890;4.724;2023-12-20T05:45:02;11.07;;;3.90;;
9597;SDS011;4837;50.890;4.724;2023-12-20T05:47:28;13.97;;;4.10;;
9597;SDS011;4837;50.890;4.724;2023-12-20T05:49:53;13.87;;;4.00;;
9597;SDS011;4837;50.890;4.724;2023-12-20T05:52:19;16.20;;;3.60;;
9597;SDS011;4837;50.890;4.724;2023-12-20T05:54:45;13.80;;;3.47;;
9597;SDS011;4837;50.890;4.724;2023-12-20T05:57:11;11.27;;;3.37;;
9597;SDS011;4837;50.890;4.724;2023-12-20T05:59:36;10.87;;;3.67;;
9597;SDS011;4837;50.890;4.724;2023-12-20T06:02:03;13.30;;;3.60;;
9597;SDS011;4837;50.890;4.724;2023-12-20T06:04:30;13.27;;;4.30;;
9597;SDS011;4837;50.890;4.724;2023-12-20T06:06:55;12.70;;;3.30;;
9597;SDS011;4837;50.890;4.724;2023-12-20T06:09:21;12.87;;;4.03;;
9597;SDS011;4837;50.890;4.724;2023-12-20T06:11:47;15.70;;;4.33;;
9597;SDS011;4837;50.890;4.724;2023-12-20T06:14:13;10.77;;;3.73;;
9597;SDS011;4837;50.890;4.724;2023-12-20T06:16:39;16.00;;;4.00;;
9597;SDS011;4837;50.890;4.724;2023-12-20T06:19:04;13.43;;;3.57;;
9597;SDS011;4837;50.890;4.724;2023-12-20T06:21:30;16.27;;;4.17;;
9597;SDS011;4837;50.890;4.724;2023-12-20T06:23:56;12.20;;;3.77;;
9597;SDS011;4837;50.890;4.724;2023-12-20T06:26:23;15.53;;;4.13;;
9597;SDS011;4837;50.890;4.724;2023-12-20T06:28:49;12.40;;;3.97;;
9597;SDS011;4837;50.890;4.724;2023-12-20T06:31:15;15.60;;;4.07;;
9597;SDS011;4837;50.890;4.724;2023-12-20T06:33:40;11.83;;;3.63;;
9597;SDS011;4837;50.890;4.724;2023-12-20T06:36:07;18.90;;;4.33;;
9597;SDS011;4837;50.890;4.724;2023-12-20T06:38:33;12.03;;;3.90;;
9597;SDS011;4837;50.890;4.724;2023-12-20T06:40:58;16.70;;;4.27;;
9597;SDS011;4837;50.890;4.724;2023-12-20T06:43:24;15.60;;;5.40;;
9597;SDS011;4837;50.890;4.724;2023-12-20T06:45:50;9.80;;;3.50;;
9597;SDS011;4837;50.890;4.724;2023-12-20T06:48:16;15.33;;;3.87;;
9597;SDS011;4837;50.890;4.724;2023-12-20T06:50:42;12.97;;;3.47;;
9597;SDS011;4837;50.890;4.724;2023-12-20T06:53:07;10.97;;;3.27;;
9597;SDS011;4837;50.890;4.724;2023-12-20T06:55:35;11.43;;;3.37;;
9597;SDS011;4837;50.890;4.724;2023-12-20T06:58:02;12.23;;;3.53;;
9597;SDS011;4837;50.890;4.724;2023-12-20T07:00:29;11.80;;;2.77;;
9597;SDS011;4837;50.890;4.724;2023-12-20T07:02:55;15.57;;;3.53;;
9597;SDS011;4837;50.890;4.724;2023-12-20T07:05:21;12.47;;;3.30;;
9597;SDS011;4837;50.890;4.724;2023-12-20T07:07:47;15.37;;;3.57;;
9597;SDS011;4837;50.890;4.724;2023-12-20T07:10:13;11.20;;;3.13;;
9597;SDS011;4837;50.890;4.724;2023-12-20T07:12:39;13.40;;;2.93;;
9597;SDS011;4837;50.890;4.724;2023-12-20T07:15:05;10.13;;;3.10;;
9597;SDS011;4837;50.890;4.724;2023-12-20T07:17:32;10.20;;;2.83;;
9597;SDS011;4837;50.890;4.724;2023-12-20T07:19:58;13.40;;;3.17;;
9597;SDS011;4837;50.890;4.724;2023-12-20T07:22:28;13.00;;;3.10;;
9597;SDS011;4837;50.890;4.724;2023-12-20T07:24:56;12.80;;;3.00;;
9597;SDS011;4837;50.890;4.724;2023-12-20T07:27:25;9.33;;;2.97;;
9597;SDS011;4837;50.890;4.724;2023-12-20T07:29:52;14.60;;;3.43;;
9597;SDS011;4837;50.890;4.724;2023-12-20T07:32:18;14.27;;;3.57;;
9597;SDS011;4837;50.890;4.724;2023-12-20T07:34:44;11.10;;;3.10;;
9597;SDS011;4837;50.890;4.724;2023-12-20T07:37:10;14.93;;;3.27;;
9597;SDS011;4837;50.890;4.724;2023-12-20T07:39:40;16.30;;;3.03;;
9597;SDS011;4837;50.890;4.724;2023-12-20T07:42:06;10.63;;;3.13;;
9597;SDS011;4837;50.890;4.724;2023-12-20T07:44:33;7.57;;;2.83;;
9597;SDS011;4837;50.890;4.724;2023-12-20T07:46:59;12.77;;;2.90;;
9597;SDS011;4837;50.890;4.724;2023-12-20T07:49:26;11.97;;;3.07;;
9597;SDS011;4837;50.890;4.724;2023-12-20T07:51:52;15.43;;;3.20;;
9597;SDS011;4837;50.890;4.724;2023-12-20T07:54:17;12.37;;;3.17;;
9597;SDS011;4837;50.890;4.724;2023-12-20T07:56:43;11.40;;;2.90;;
9597;SDS011;4837;50.890;4.724;2023-12-20T07:59:09;10.33;;;2.80;;
9597;SDS011;4837;50.890;4.724;2023-12-20T08:01:35;15.97;;;2.80;;
9597;SDS011;4837;50.890;4.724;2023-12-20T08:04:01;10.97;;;3.20;;
9597;SDS011;4837;50.890;4.724;2023-12-20T08:06:27;9.17;;;3.00;;
9597;SDS011;4837;50.890;4.724;2023-12-20T08:08:52;13.07;;;2.73;;
9597;SDS011;4837;50.890;4.724;2023-12-20T08:11:18;12.93;;;2.80;;
9597;SDS011;4837;50.890;4.724;2023-12-20T08:13:44;8.20;;;2.70;;
9597;SDS011;4837;50.890;4.724;2023-12-20T08:16:10;11.33;;;2.80;;
9597;SDS011;4837;50.890;4.724;2023-12-20T08:18:38;10.90;;;2.80;;
9597;SDS011;4837;50.890;4.724;2023-12-20T08:21:04;10.83;;;2.77;;
9597;SDS011;4837;50.890;4.724;2023-12-20T08:23:32;18.17;;;3.10;;
9597;SDS011;4837;50.890;4.724;2023-12-20T08:26:03;11.83;;;2.93;;
9597;SDS011;4837;50.890;4.724;2023-12-20T08:28:31;13.83;;;2.90;;
9597;SDS011;4837;50.890;4.724;2023-12-20T08:30:57;7.63;;;2.40;;
9597;SDS011;4837;50.890;4.724;2023-12-20T08:33:23;13.80;;;2.60;;
9597;SDS011;4837;50.890;4.724;2023-12-20T08:35:49;14.87;;;2.63;;
9597;SDS011;4837;50.890;4.724;2023-12-20T08:38:15;10.63;;;2.57;;
9597;SDS011;4837;50.890;4.724;2023-12-20T08:40:41;11.77;;;3.23;;
9597;SDS011;4837;50.890;4.724;2023-12-20T08:43:08;13.47;;;3.27;;
9597;SDS011;4837;50.890;4.724;2023-12-20T08:45:34;12.17;;;3.20;;
9597;SDS011;4837;50.890;4.724;2023-12-20T08:47:59;17.27;;;3.07;;
9597;SDS011;4837;50.890;4.724;2023-12-20T08:50:25;8.20;;;3.00;;
9597;SDS011;4837;50.890;4.724;2023-12-20T08:52:51;14.73;;;3.30;;
9597;SDS011;4837;50.890;4.724;2023-12-20T08:55:17;15.10;;;3.93;;
9597;SDS011;4837;50.890;4.724;2023-12-20T08:57:44;8.10;;;2.60;;
9597;SDS011;4837;50.890;4.724;2023-12-20T09:00:10;9.53;;;2.73;;
9597;SDS011;4837;50.890;4.724;2023-12-20T09:02:36;11.40;;;3.00;;
9597;SDS011;4837;50.890;4.724;2023-12-20T09:05:03;11.40;;;2.90;;
9597;SDS011;4837;50.890;4.724;2023-12-20T09:07:29;14.47;;;2.47;;
9597;SDS011;4837;50.890;4.724;2023-12-20T09:09:57;10.50;;;2.77;;
9597;SDS011;4837;50.890;4.724;2023-12-20T09:12:24;12.77;;;2.93;;
9597;SDS011;4837;50.890;4.724;2023-12-20T09:14:50;8.80;;;2.50;;
9597;SDS011;4837;50.890;4.724;2023-12-20T09:17:17;13.30;;;2.70;;
9597;SDS011;4837;50.890;4.724;2023-12-20T09:19:43;17.27;;;3.40;;
9597;SDS011;4837;50.890;4.724;2023-12-20T09:22:09;9.83;;;2.60;;
9597;SDS011;4837;50.890;4.724;2023-12-20T09:24:35;13.50;;;3.10;;
9597;SDS011;4837;50.890;4.724;2023-12-20T09:27:01;15.30;;;2.37;;
9597;SDS011;4837;50.890;4.724;2023-12-20T09:29:27;9.43;;;2.47;;
9597;SDS011;4837;50.890;4.724;2023-12-20T09:31:54;12.77;;;2.90;;
9597;SDS011;4837;50.890;4.724;2023-12-20T09:34:19;8.20;;;2.57;;
9597;SDS011;4837;50.890;4.724;2023-12-20T09:36:46;10.07;;;2.53;;
9597;SDS011;4837;50.890;4.724;2023-12-20T09:39:16;14.67;;;2.70;;
9597;SDS011;4837;50.890;4.724;2023-12-20T09:42:02;9.33;;;3.00;;
9597;SDS011;4837;50.890;4.724;2023-12-20T09:44:29;16.63;;;3.40;;
9597;SDS011;4837;50.890;4.724;2023-12-20T09:46:56;13.30;;;2.67;;
9597;SDS011;4837;50.890;4.724;2023-12-20T09:49:22;14.50;;;2.97;;
9597;SDS011;4837;50.890;4.724;2023-12-20T09:51:54;15.37;;;2.90;;
9597;SDS011;4837;50.890;4.724;2023-12-20T09:54:21;12.30;;;3.40;;
9597;SDS011;4837;50.890;4.724;2023-12-20T09:56:48;11.77;;;3.30;;
9597;SDS011;4837;50.890;4.724;2023-12-20T09:59:14;11.67;;;3.33;;
9597;SDS011;4837;50.890;4.724;2023-12-20T10:01:40;13.50;;;3.43;;
9597;SDS011;4837;50.890;4.724;2023-12-20T10:04:07;12.00;;;2.97;;
9597;SDS011;4837;50.890;4.724;2023-12-20T10:06:36;10.67;;;2.80;;
9597;SDS011;4837;50.890;4.724;2023-12-20T10:09:02;11.63;;;2.80;;
9597;SDS011;4837;50.890;4.724;2023-12-20T10:11:29;8.43;;;2.17;;
9597;SDS011;4837;50.890;4.724;2023-12-20T10:14:01;14.27;;;3.47;;
9597;SDS011;4837;50.890;4.724;2023-12-20T10:16:27;8.47;;;2.47;;
9597;SDS011;4837;50.890;4.724;2023-12-20T10:18:54;10.93;;;2.80;;
9597;SDS011;4837;50.890;4.724;2023-12-20T10:21:20;6.47;;;3.10;;
9597;SDS011;4837;50.890;4.724;2023-12-20T10:23:47;11.17;;;3.07;;
9597;SDS011;4837;50.890;4.724;2023-12-20T10:26:19;10.87;;;3.27;;
9597;SDS011;4837;50.890;4.724;2023-12-20T10:28:50;7.70;;;2.80;;
9597;SDS011;4837;50.890;4.724;2023-12-20T10:33:57;7.50;;;2.90;;
9597;SDS011;4837;50.890;4.724;2023-12-20T10:36:29;9.00;;;2.80;;
9597;SDS011;4837;50.890;4.724;2023-12-20T10:38:58;10.95;;;2.83;;
9597;SDS011;4837;50.890;4.724;2023-12-20T10:41:31;10.83;;;2.93;;
9597;SDS011;4837;50.890;4.724;2023-12-20T10:44:04;11.80;;;3.20;;
9597;SDS011;4837;50.890;4.724;2023-12-20T10:46:30;12.37;;;3.30;;
9597;SDS011;4837;50.890;4.724;2023-12-20T10:48:57;12.77;;;3.57;;
9597;SDS011;4837;50.890;4.724;2023-12-20T10:51:24;9.40;;;2.93;;
9597;SDS011;4837;50.890;4.724;2023-12-20T10:53:55;11.23;;;3.00;;
9597;SDS011;4837;50.890;4.724;2023-12-20T10:56:21;10.60;;;2.73;;
9597;SDS011;4837;50.890;4.724;2023-12-20T10:58:49;9.80;;;2.77;;
9597;SDS011;4837;50.890;4.724;2023-12-20T11:01:16;12.70;;;3.23;;
9597;SDS011;4837;50.890;4.724;2023-12-20T11:03:52;10.83;;;2.90;;
9597;SDS011;4837;50.890;4.724;2023-12-20T11:09:14;11.60;;;3.07;;
9597;SDS011;4837;50.890;4.724;2023-12-20T11:14:35;14.90;;;3.23;;
9597;SDS011;4837;50.890;4.724;2023-12-20T11:17:12;12.13;;;3.27;;
9597;SDS011;4837;50.890;4.724;2023-12-20T11:22:24;10.40;;;2.57;;
9597;SDS011;4837;50.890;4.724;2023-12-20T11:24:52;11.00;;;2.80;;
9597;SDS011;4837;50.890;4.724;2023-12-20T11:27:19;9.10;;;3.20;;
9597;SDS011;4837;50.890;4.724;2023-12-20T11:29:52;11.38;;;2.80;;
9597;SDS011;4837;50.890;4.724;2023-12-20T11:37:36;9.03;;;3.23;;
9597;SDS011;4837;50.890;4.724;2023-12-20T11:40:06;15.43;;;3.55;;
9597;SDS011;4837;50.890;4.724;2023-12-20T11:42:39;9.43;;;2.63;;
9597;SDS011;4837;50.890;4.724;2023-12-20T11:45:21;11.75;;;3.20;;
9597;SDS011;4837;50.890;4.724;2023-12-20T11:47:50;10.77;;;2.90;;
9597;SDS011;4837;50.890;4.724;2023-12-20T11:50:17;9.93;;;2.90;;
9597;SDS011;4837;50.890;4.724;2023-12-20T11:52:43;12.90;;;2.70;;
9597;SDS011;4837;50.890;4.724;2023-12-20T11:55:09;13.27;;;2.95;;
9597;SDS011;4837;50.890;4.724;2023-12-20T11:57:35;13.38;;;3.53;;
9597;SDS011;4837;50.890;4.724;2023-12-20T12:00:02;12.53;;;2.90;;
9597;SDS011;4837;50.890;4.724;2023-12-20T12:02:28;14.13;;;3.60;;
9597;SDS011;4837;50.890;4.724;2023-12-20T12:04:55;10.20;;;3.17;;
9597;SDS011;4837;50.890;4.724;2023-12-20T12:07:22;12.60;;;2.77;;
9597;SDS011;4837;50.890;4.724;2023-12-20T12:09:47;10.80;;;3.13;;
9597;SDS011;4837;50.890;4.724;2023-12-20T12:12:13;12.33;;;3.00;;
9597;SDS011;4837;50.890;4.724;2023-12-20T12:14:40;13.10;;;3.30;;
9597;SDS011;4837;50.890;4.724;2023-12-20T12:17:12;14.60;;;4.60;;
9597;SDS011;4837;50.890;4.724;2023-12-20T12:19:39;15.77;;;3.30;;
9597;SDS011;4837;50.890;4.724;2023-12-20T12:24:34;12.67;;;3.27;;
9597;SDS011;4837;50.890;4.724;2023-12-20T12:27:00;11.77;;;3.33;;
9597;SDS011;4837;50.890;4.724;2023-12-20T12:29:27;13.33;;;3.70;;
9597;SDS011;4837;50.890;4.724;2023-12-20T12:31:53;10.33;;;3.33;;
9597;SDS011;4837;50.890;4.724;2023-12-20T12:34:18;13.90;;;3.63;;
9597;SDS011;4837;50.890;4.724;2023-12-20T12:36:44;12.90;;;2.90;;
9597;SDS011;4837;50.890;4.724;2023-12-20T12:39:17;10.43;;;3.13;;
9597;SDS011;4837;50.890;4.724;2023-12-20T12:41:43;10.60;;;2.73;;
9597;SDS011;4837;50.890;4.724;2023-12-20T12:44:09;11.27;;;3.50;;
9597;SDS011;4837;50.890;4.724;2023-12-20T12:46:35;18.97;;;3.60;;
9597;SDS011;4837;50.890;4.724;2023-12-20T12:49:01;10.27;;;3.10;;
9597;SDS011;4837;50.890;4.724;2023-12-20T12:51:26;14.63;;;3.63;;
9597;SDS011;4837;50.890;4.724;2023-12-20T12:53:52;11.53;;;2.90;;
9597;SDS011;4837;50.890;4.724;2023-12-20T12:56:18;11.03;;;3.03;;
9597;SDS011;4837;50.890;4.724;2023-12-20T12:58:44;11.87;;;3.50;;
9597;SDS011;4837;50.890;4.724;2023-12-20T13:01:10;13.67;;;3.40;;
9597;SDS011;4837;50.890;4.724;2023-12-20T13:03:36;17.17;;;3.53;;
9597;SDS011;4837;50.890;4.724;2023-12-20T13:06:02;11.77;;;3.10;;
9597;SDS011;4837;50.890;4.724;2023-12-20T13:08:30;8.80;;;2.90;;
9597;SDS011;4837;50.890;4.724;2023-12-20T13:10:55;18.08;;;3.80;;
9597;SDS011;4837;50.890;4.724;2023-12-20T13:13:24;15.93;;;3.10;;
9597;SDS011;4837;50.890;4.724;2023-12-20T13:15:49;11.38;;;3.10;;
9597;SDS011;4837;50.890;4.724;2023-12-20T13:18:18;11.93;;;3.23;;
9597;SDS011;4837;50.890;4.724;2023-12-20T13:20:44;12.88;;;3.20;;
9597;SDS011;4837;50.890;4.724;2023-12-20T13:23:10;12.83;;;3.87;;
9597;SDS011;4837;50.890;4.724;2023-12-20T13:25:35;12.30;;;3.93;;
9597;SDS011;4837;50.890;4.724;2023-12-20T13:28:01;12.20;;;4.70;;
9597;SDS011;4837;50.890;4.724;2023-12-20T13:30:28;13.03;;;3.50;;
9597;SDS011;4837;50.890;4.724;2023-12-20T13:32:55;15.52;;;3.45;;
9597;SDS011;4837;50.890;4.724;2023-12-20T13:35:20;11.63;;;2.83;;
9597;SDS011;4837;50.890;4.724;2023-12-20T13:37:46;9.07;;;3.30;;
9597;SDS011;4837;50.890;4.724;2023-12-20T13:40:12;12.47;;;3.03;;
9597;SDS011;4837;50.890;4.724;2023-12-20T13:42:41;12.05;;;2.97;;
9597;SDS011;4837;50.890;4.724;2023-12-20T13:45:07;9.43;;;3.10;;
9597;SDS011;4837;50.890;4.724;2023-12-20T13:47:33;10.13;;;2.77;;
9597;SDS011;4837;50.890;4.724;2023-12-20T13:50:00;12.37;;;3.07;;
9597;SDS011;4837;50.890;4.724;2023-12-20T13:52:26;14.50;;;3.10;;
9597;SDS011;4837;50.890;4.724;2023-12-20T13:54:52;10.45;;;2.78;;
9597;SDS011;4837;50.890;4.724;2023-12-20T13:57:17;12.60;;;3.00;;
9597;SDS011;4837;50.890;4.724;2023-12-20T13:59:43;12.90;;;2.90;;
9597;SDS011;4837;50.890;4.724;2023-12-20T14:02:10;11.53;;;3.30;;
9597;SDS011;4837;50.890;4.724;2023-12-20T14:04:36;9.95;;;2.78;;
9597;SDS011;4837;50.890;4.724;2023-12-20T14:07:03;13.85;;;3.25;;
9597;SDS011;4837;50.890;4.724;2023-12-20T14:09:30;12.27;;;3.63;;
9597;SDS011;4837;50.890;4.724;2023-12-20T14:11:55;18.95;;;8.48;;
9597;SDS011;4837;50.890;4.724;2023-12-20T14:14:21;17.93;;;4.60;;
9597;SDS011;4837;50.890;4.724;2023-12-20T14:16:47;9.73;;;3.53;;
9597;SDS011;4837;50.890;4.724;2023-12-20T14:19:13;9.77;;;3.27;;
9597;SDS011;4837;50.890;4.724;2023-12-20T14:21:38;15.80;;;3.23;;
9597;SDS011;4837;50.890;4.724;2023-12-20T14:24:04;9.27;;;2.73;;
9597;SDS011;4837;50.890;4.724;2023-12-20T14:26:30;11.43;;;2.72;;
9597;SDS011;4837;50.890;4.724;2023-12-20T14:28:56;14.27;;;3.92;;
9597;SDS011;4837;50.890;4.724;2023-12-20T14:31:23;9.03;;;4.00;;
9597;SDS011;4837;50.890;4.724;2023-12-20T14:33:50;9.77;;;3.10;;
9597;SDS011;4837;50.890;4.724;2023-12-20T14:36:18;13.53;;;4.83;;
9597;SDS011;4837;50.890;4.724;2023-12-20T14:38:45;10.90;;;4.60;;
9597;SDS011;4837;50.890;4.724;2023-12-20T14:41:12;8.77;;;3.00;;
9597;SDS011;4837;50.890;4.724;2023-12-20T14:43:38;11.32;;;2.75;;
9597;SDS011;4837;50.890;4.724;2023-12-20T14:46:03;15.40;;;2.70;;
9597;SDS011;4837;50.890;4.724;2023-12-20T14:48:30;9.63;;;2.78;;
9597;SDS011;4837;50.890;4.724;2023-12-20T14:50:57;10.52;;;3.28;;
9597;SDS011;4837;50.890;4.724;2023-12-20T14:53:24;12.70;;;2.93;;
9597;SDS011;4837;50.890;4.724;2023-12-20T14:55:50;10.57;;;3.23;;
9597;SDS011;4837;50.890;4.724;2023-12-20T14:58:16;11.13;;;3.65;;
9597;SDS011;4837;50.890;4.724;2023-12-20T15:00:42;12.37;;;2.90;;
9597;SDS011;4837;50.890;4.724;2023-12-20T15:03:09;16.88;;;4.28;;
9597;SDS011;4837;50.890;4.724;2023-12-20T15:05:35;16.37;;;5.37;;
9597;SDS011;4837;50.890;4.724;2023-12-20T15:08:01;9.80;;;3.50;;
9597;SDS011;4837;50.890;4.724;2023-12-20T15:10:27;15.77;;;5.17;;
9597;SDS011;4837;50.890;4.724;2023-12-20T15:12:52;11.73;;;3.27;;
9597;SDS011;4837;50.890;4.724;2023-12-20T15:15:20;12.68;;;3.55;;
9597;SDS011;4837;50.890;4.724;2023-12-20T15:17:45;12.60;;;2.97;;
9597;SDS011;4837;50.890;4.724;2023-12-20T15:20:11;9.43;;;2.55;;